sensor_id;sensor_type;location;lat;lon;timestamp;P1;durP1;ratioP1;P2;durP2;ratioP2
64037;SDS011;54641;50.168;8.492;2023-03-13T00:01:17;14.50;;;3.20;;
64037;SDS011;54641;50.168;8.492;2023-03-13T00:03:49;15.00;;;2.70;;
64037;SDS011;54641;50.168;8.492;2023-03-13T00:06:19;13.10;;;4.30;;
64037;SDS011;54641;50.168;8.492;2023-03-13T00:08:50;9.40;;;2.70;;
64037;SDS011;54641;50.168;8.492;2023-03-13T00:11:21;11.30;;;2.80;;
64037;SDS011;54641;50.168;8.492;2023-03-13T00:13:53;11.90;;;2.40;;
64037;SDS011;54641;50.168;8.492;2023-03-13T00:16:24;18.40;;;3.20;;
64037;SDS011;54641;50.168;8.492;2023-03-13T00:18:55;17.40;;;3.70;;
64037;SDS011;54641;50.168;8.492;2023-03-13T00:21:26;13.90;;;3.60;;
64037;SDS011;54641;50.168;8.492;2023-03-13T00:23:58;14.10;;;3.20;;
64037;SDS011;54641;50.168;8.492;2023-03-13T00:26:28;13.60;;;2.70;;
64037;SDS011;54641;50.168;8.492;2023-03-13T00:28:59;14.00;;;3.30;;
64037;SDS011;54641;50.168;8.492;2023-03-13T00:31:29;11.60;;;3.00;;
64037;SDS011;54641;50.168;8.492;2023-03-13T00:34:00;11.70;;;3.40;;
64037;SDS011;54641;50.168;8.492;2023-03-13T00:36:32;10.00;;;3.60;;
64037;SDS011;54641;50.168;8.492;2023-03-13T00:39:04;13.30;;;3.00;;
64037;SDS011;54641;50.168;8.492;2023-03-13T00:41:35;16.10;;;3.00;;
64037;SDS011;54641;50.168;8.492;2023-03-13T00:44:06;11.30;;;3.10;;
64037;SDS011;54641;50.168;8.492;2023-03-13T00:46:36;13.90;;;3.00;;
64037;SDS011;54641;50.168;8.492;2023-03-13T00:49:07;14.10;;;2.70;;
64037;SDS011;54641;50.168;8.492;2023-03-13T00:51:38;13.40;;;3.00;;
64037;SDS011;54641;50.168;8.492;2023-03-13T00:54:09;10.00;;;3.10;;
64037;SDS011;54641;50.168;8.492;2023-03-13T00:56:39;17.20;;;3.00;;
64037;SDS011;54641;50.168;8.492;2023-03-13T00:59:09;12.40;;;2.90;;
64037;SDS011;54641;50.168;8.492;2023-03-13T01:01:40;12.60;;;3.10;;
64037;SDS011;54641;50.168;8.492;2023-03-13T01:04:11;13.10;;;2.80;;
64037;SDS011;54641;50.168;8.492;2023-03-13T01:06:41;11.30;;;2.70;;
64037;SDS011;54641;50.168;8.492;2023-03-13T01:09:13;12.10;;;2.90;;
64037;SDS011;54641;50.168;8.492;2023-03-13T01:11:44;12.10;;;2.90;;
64037;SDS011;54641;50.168;8.492;2023-03-13T01:14:16;17.20;;;3.10;;
64037;SDS011;54641;50.168;8.492;2023-03-13T01:16:47;15.10;;;3.50;;
64037;SDS011;54641;50.168;8.492;2023-03-13T01:19:17;12.70;;;3.70;;
64037;SDS011;54641;50.168;8.492;2023-03-13T01:21:47;17.00;;;3.10;;
64037;SDS011;54641;50.168;8.492;2023-03-13T01:24:18;9.60;;;2.70;;
64037;SDS011;54641;50.168;8.492;2023-03-13T01:26:49;11.70;;;3.40;;
64037;SDS011;54641;50.168;8.492;2023-03-13T01:29:19;15.60;;;2.80;;
64037;SDS011;54641;50.168;8.492;2023-03-13T01:31:49;16.50;;;3.50;;
64037;SDS011;54641;50.168;8.492;2023-03-13T01:34:20;16.80;;;2.50;;
64037;SDS011;54641;50.168;8.492;2023-03-13T01:36:51;16.70;;;2.60;;
64037;SDS011;54641;50.168;8.492;2023-03-13T01:39:21;9.90;;;2.70;;
64037;SDS011;54641;50.168;8.492;2023-03-13T01:41:52;11.60;;;3.20;;
64037;SDS011;54641;50.168;8.492;2023-03-13T01:44:23;11.90;;;3.30;;
64037;SDS011;54641;50.168;8.492;2023-03-13T01:46:56;10.50;;;2.80;;
64037;SDS011;54641;50.168;8.492;2023-03-13T01:49:46;12.70;;;2.90;;
64037;SDS011;54641;50.168;8.492;2023-03-13T01:52:31;10.40;;;2.40;;
64037;SDS011;54641;50.168;8.492;2023-03-13T01:55:09;11.30;;;2.50;;
64037;SDS011;54641;50.168;8.492;2023-03-13T01:57:45;14.20;;;3.10;;
64037;SDS011;54641;50.168;8.492;2023-03-13T02:00:20;13.30;;;2.80;;
64037;SDS011;54641;50.168;8.492;2023-03-13T02:02:53;10.80;;;2.50;;
64037;SDS011;54641;50.168;8.492;2023-03-13T02:05:25;14.40;;;3.10;;
64037;SDS011;54641;50.168;8.492;2023-03-13T02:07:57;18.00;;;3.00;;
64037;SDS011;54641;50.168;8.492;2023-03-13T02:12:59;11.20;;;2.80;;
64037;SDS011;54641;50.168;8.492;2023-03-13T02:15:30;13.50;;;3.30;;
64037;SDS011;54641;50.168;8.492;2023-03-13T02:18:01;17.90;;;3.20;;
64037;SDS011;54641;50.168;8.492;2023-03-13T02:20:31;15.00;;;3.10;;
64037;SDS011;54641;50.168;8.492;2023-03-13T02:23:02;13.60;;;3.00;;
64037;SDS011;54641;50.168;8.492;2023-03-13T02:25:38;12.80;;;3.80;;
64037;SDS011;54641;50.168;8.492;2023-03-13T02:28:11;12.90;;;3.60;;
64037;SDS011;54641;50.168;8.492;2023-03-13T02:30:43;10.50;;;2.60;;
64037;SDS011;54641;50.168;8.492;2023-03-13T02:33:14;14.50;;;2.70;;
64037;SDS011;54641;50.168;8.492;2023-03-13T02:35:45;14.10;;;3.10;;
64037;SDS011;54641;50.168;8.492;2023-03-13T02:38:17;13.50;;;3.20;;
64037;SDS011;54641;50.168;8.492;2023-03-13T02:40:49;11.60;;;2.30;;
64037;SDS011;54641;50.168;8.492;2023-03-13T02:43:22;14.10;;;3.10;;
64037;SDS011;54641;50.168;8.492;2023-03-13T02:46:00;13.30;;;3.00;;
64037;SDS011;54641;50.168;8.492;2023-03-13T02:48:33;12.40;;;2.60;;
64037;SDS011;54641;50.168;8.492;2023-03-13T02:51:06;10.90;;;2.40;;
64037;SDS011;54641;50.168;8.492;2023-03-13T02:53:39;7.40;;;1.80;;
64037;SDS011;54641;50.168;8.492;2023-03-13T02:56:09;15.70;;;2.80;;
64037;SDS011;54641;50.168;8.492;2023-03-13T02:58:42;5.70;;;2.10;;
64037;SDS011;54641;50.168;8.492;2023-03-13T03:01:19;11.80;;;2.60;;
64037;SDS011;54641;50.168;8.492;2023-03-13T03:03:50;16.00;;;3.50;;
64037;SDS011;54641;50.168;8.492;2023-03-13T03:06:20;13.50;;;3.20;;
64037;SDS011;54641;50.168;8.492;2023-03-13T03:08:51;12.10;;;2.60;;
64037;SDS011;54641;50.168;8.492;2023-03-13T03:11:21;8.30;;;2.80;;
64037;SDS011;54641;50.168;8.492;2023-03-13T03:13:56;11.80;;;3.00;;
64037;SDS011;54641;50.168;8.492;2023-03-13T03:16:28;10.10;;;3.60;;
64037;SDS011;54641;50.168;8.492;2023-03-13T03:18:59;11.70;;;3.20;;
64037;SDS011;54641;50.168;8.492;2023-03-13T03:21:30;11.70;;;2.70;;
64037;SDS011;54641;50.168;8.492;2023-03-13T03:24:00;13.80;;;4.20;;
64037;SDS011;54641;50.168;8.492;2023-03-13T03:26:31;12.40;;;3.00;;
64037;SDS011;54641;50.168;8.492;2023-03-13T03:29:03;17.40;;;3.50;;
64037;SDS011;54641;50.168;8.492;2023-03-13T03:31:34;11.60;;;3.00;;
64037;SDS011;54641;50.168;8.492;2023-03-13T03:34:05;10.30;;;3.40;;
64037;SDS011;54641;50.168;8.492;2023-03-13T03:36:35;12.10;;;3.20;;
64037;SDS011;54641;50.168;8.492;2023-03-13T03:39:06;10.40;;;3.50;;
64037;SDS011;54641;50.168;8.492;2023-03-13T03:41:36;14.40;;;3.70;;
64037;SDS011;54641;50.168;8.492;2023-03-13T03:44:10;10.60;;;3.00;;
64037;SDS011;54641;50.168;8.492;2023-03-13T03:46:54;11.80;;;2.80;;
64037;SDS011;54641;50.168;8.492;2023-03-13T03:49:26;16.80;;;2.80;;
64037;SDS011;54641;50.168;8.492;2023-03-13T03:51:57;11.30;;;3.10;;
64037;SDS011;54641;50.168;8.492;2023-03-13T03:54:31;12.20;;;3.30;;
64037;SDS011;54641;50.168;8.492;2023-03-13T03:57:02;8.50;;;1.90;;
64037;SDS011;54641;50.168;8.492;2023-03-13T03:59:34;10.70;;;2.70;;
64037;SDS011;54641;50.168;8.492;2023-03-13T04:02:08;10.00;;;2.80;;
64037;SDS011;54641;50.168;8.492;2023-03-13T04:04:40;10.50;;;2.30;;
64037;SDS011;54641;50.168;8.492;2023-03-13T04:07:14;11.20;;;2.70;;
64037;SDS011;54641;50.168;8.492;2023-03-13T04:09:45;10.90;;;3.20;;
64037;SDS011;54641;50.168;8.492;2023-03-13T04:12:23;12.00;;;2.20;;
64037;SDS011;54641;50.168;8.492;2023-03-13T04:14:54;10.20;;;2.50;;
64037;SDS011;54641;50.168;8.492;2023-03-13T04:17:25;9.30;;;2.90;;
64037;SDS011;54641;50.168;8.492;2023-03-13T04:19:55;11.80;;;2.70;;
64037;SDS011;54641;50.168;8.492;2023-03-13T04:22:26;11.30;;;3.30;;
64037;SDS011;54641;50.168;8.492;2023-03-13T04:24:58;12.00;;;3.60;;
64037;SDS011;54641;50.168;8.492;2023-03-13T04:27:30;12.90;;;2.20;;
64037;SDS011;54641;50.168;8.492;2023-03-13T04:30:02;9.40;;;2.20;;
64037;SDS011;54641;50.168;8.492;2023-03-13T04:33:06;9.10;;;2.50;;
64037;SDS011;54641;50.168;8.492;2023-03-13T04:35:49;9.50;;;2.30;;
64037;SDS011;54641;50.168;8.492;2023-03-13T04:38:27;10.10;;;2.50;;
64037;SDS011;54641;50.168;8.492;2023-03-13T04:41:06;5.60;;;2.10;;
64037;SDS011;54641;50.168;8.492;2023-03-13T04:43:50;6.80;;;2.00;;
64037;SDS011;54641;50.168;8.492;2023-03-13T04:46:36;7.20;;;2.20;;
64037;SDS011;54641;50.168;8.492;2023-03-13T04:49:10;9.50;;;2.00;;
64037;SDS011;54641;50.168;8.492;2023-03-13T04:52:06;4.30;;;1.40;;
64037;SDS011;54641;50.168;8.492;2023-03-13T04:54:46;9.80;;;2.20;;
64037;SDS011;54641;50.168;8.492;2023-03-13T04:57:28;7.60;;;2.70;;
64037;SDS011;54641;50.168;8.492;2023-03-13T05:00:14;6.20;;;2.30;;
64037;SDS011;54641;50.168;8.492;2023-03-13T05:03:08;8.50;;;3.60;;
64037;SDS011;54641;50.168;8.492;2023-03-13T05:05:55;6.10;;;1.70;;
64037;SDS011;54641;50.168;8.492;2023-03-13T05:08:55;6.40;;;2.10;;
64037;SDS011;54641;50.168;8.492;2023-03-13T05:11:38;7.70;;;2.30;;
64037;SDS011;54641;50.168;8.492;2023-03-13T05:14:35;8.60;;;2.20;;
64037;SDS011;54641;50.168;8.492;2023-03-13T05:17:30;7.70;;;2.60;;
64037;SDS011;54641;50.168;8.492;2023-03-13T05:20:22;6.10;;;2.10;;
64037;SDS011;54641;50.168;8.492;2023-03-13T05:23:07;8.60;;;3.80;;
64037;SDS011;54641;50.168;8.492;2023-03-13T05:25:56;6.70;;;3.30;;
64037;SDS011;54641;50.168;8.492;2023-03-13T05:28:45;7.90;;;2.90;;
64037;SDS011;54641;50.168;8.492;2023-03-13T05:31:34;10.60;;;3.20;;
64037;SDS011;54641;50.168;8.492;2023-03-13T05:34:16;9.50;;;3.90;;
64037;SDS011;54641;50.168;8.492;2023-03-13T05:37:05;24.00;;;9.50;;
64037;SDS011;54641;50.168;8.492;2023-03-13T05:39:54;22.90;;;11.80;;
64037;SDS011;54641;50.168;8.492;2023-03-13T05:42:25;13.70;;;6.90;;
64037;SDS011;54641;50.168;8.492;2023-03-13T05:45:21;11.50;;;5.60;;
64037;SDS011;54641;50.168;8.492;2023-03-13T05:48:16;15.40;;;6.10;;
64037;SDS011;54641;50.168;8.492;2023-03-13T05:51:02;14.80;;;6.10;;
64037;SDS011;54641;50.168;8.492;2023-03-13T05:53:45;12.30;;;6.70;;
64037;SDS011;54641;50.168;8.492;2023-03-13T05:56:40;10.90;;;5.30;;
64037;SDS011;54641;50.168;8.492;2023-03-13T05:59:31;13.20;;;6.00;;
64037;SDS011;54641;50.168;8.492;2023-03-13T06:02:40;11.60;;;5.80;;
64037;SDS011;54641;50.168;8.492;2023-03-13T06:05:15;11.50;;;4.40;;
64037;SDS011;54641;50.168;8.492;2023-03-13T06:07:46;7.40;;;3.00;;
64037;SDS011;54641;50.168;8.492;2023-03-13T06:10:18;7.80;;;3.80;;
64037;SDS011;54641;50.168;8.492;2023-03-13T06:12:52;8.30;;;3.30;;
64037;SDS011;54641;50.168;8.492;2023-03-13T06:15:26;7.80;;;3.40;;
64037;SDS011;54641;50.168;8.492;2023-03-13T06:18:01;4.60;;;3.00;;
64037;SDS011;54641;50.168;8.492;2023-03-13T06:20:31;6.70;;;3.90;;
64037;SDS011;54641;50.168;8.492;2023-03-13T06:23:01;9.30;;;3.70;;
64037;SDS011;54641;50.168;8.492;2023-03-13T06:25:33;9.00;;;3.80;;
64037;SDS011;54641;50.168;8.492;2023-03-13T06:28:03;5.60;;;3.20;;
64037;SDS011;54641;50.168;8.492;2023-03-13T06:30:35;10.90;;;4.30;;
64037;SDS011;54641;50.168;8.492;2023-03-13T06:33:05;10.20;;;3.80;;
64037;SDS011;54641;50.168;8.492;2023-03-13T06:35:38;6.70;;;3.90;;
64037;SDS011;54641;50.168;8.492;2023-03-13T06:38:22;6.10;;;3.60;;
64037;SDS011;54641;50.168;8.492;2023-03-13T06:40:53;6.70;;;3.20;;
64037;SDS011;54641;50.168;8.492;2023-03-13T06:43:23;3.50;;;2.30;;
64037;SDS011;54641;50.168;8.492;2023-03-13T06:45:54;9.80;;;4.70;;
64037;SDS011;54641;50.168;8.492;2023-03-13T06:48:24;5.90;;;3.10;;
64037;SDS011;54641;50.168;8.492;2023-03-13T06:50:54;4.90;;;3.00;;
64037;SDS011;54641;50.168;8.492;2023-03-13T06:53:24;7.20;;;3.60;;
64037;SDS011;54641;50.168;8.492;2023-03-13T06:55:55;9.10;;;4.30;;
64037;SDS011;54641;50.168;8.492;2023-03-13T06:58:28;5.50;;;3.50;;
64037;SDS011;54641;50.168;8.492;2023-03-13T07:01:04;5.60;;;3.20;;
64037;SDS011;54641;50.168;8.492;2023-03-13T07:03:35;5.70;;;3.90;;
64037;SDS011;54641;50.168;8.492;2023-03-13T07:06:08;6.20;;;4.40;;
64037;SDS011;54641;50.168;8.492;2023-03-13T07:08:39;5.30;;;3.90;;
64037;SDS011;54641;50.168;8.492;2023-03-13T07:11:10;6.00;;;4.20;;
64037;SDS011;54641;50.168;8.492;2023-03-13T07:13:40;4.80;;;3.50;;
64037;SDS011;54641;50.168;8.492;2023-03-13T07:16:11;7.30;;;3.20;;
64037;SDS011;54641;50.168;8.492;2023-03-13T07:18:43;6.30;;;3.90;;
64037;SDS011;54641;50.168;8.492;2023-03-13T07:21:13;4.60;;;3.40;;
64037;SDS011;54641;50.168;8.492;2023-03-13T07:23:43;5.20;;;3.10;;
64037;SDS011;54641;50.168;8.492;2023-03-13T07:26:14;5.40;;;3.20;;
64037;SDS011;54641;50.168;8.492;2023-03-13T07:28:44;4.20;;;3.00;;
64037;SDS011;54641;50.168;8.492;2023-03-13T07:31:15;4.10;;;2.20;;
64037;SDS011;54641;50.168;8.492;2023-03-13T07:33:46;3.10;;;2.40;;
64037;SDS011;54641;50.168;8.492;2023-03-13T07:36:19;3.50;;;2.30;;
64037;SDS011;54641;50.168;8.492;2023-03-13T07:38:49;3.90;;;2.40;;
64037;SDS011;54641;50.168;8.492;2023-03-13T07:41:20;5.00;;;2.80;;
64037;SDS011;54641;50.168;8.492;2023-03-13T07:43:50;5.60;;;2.50;;
64037;SDS011;54641;50.168;8.492;2023-03-13T07:46:20;4.00;;;2.70;;
64037;SDS011;54641;50.168;8.492;2023-03-13T07:48:51;5.70;;;2.90;;
64037;SDS011;54641;50.168;8.492;2023-03-13T07:51:22;4.90;;;2.60;;
64037;SDS011;54641;50.168;8.492;2023-03-13T07:54:09;3.40;;;2.40;;
64037;SDS011;54641;50.168;8.492;2023-03-13T07:56:40;3.30;;;2.10;;
64037;SDS011;54641;50.168;8.492;2023-03-13T07:59:10;3.50;;;2.20;;
64037;SDS011;54641;50.168;8.492;2023-03-13T08:01:40;3.20;;;2.40;;
64037;SDS011;54641;50.168;8.492;2023-03-13T08:04:12;3.50;;;2.30;;
64037;SDS011;54641;50.168;8.492;2023-03-13T08:06:42;5.40;;;2.70;;
64037;SDS011;54641;50.168;8.492;2023-03-13T08:09:13;3.50;;;2.50;;
64037;SDS011;54641;50.168;8.492;2023-03-13T08:11:43;4.40;;;2.20;;
64037;SDS011;54641;50.168;8.492;2023-03-13T08:14:14;5.20;;;2.50;;
64037;SDS011;54641;50.168;8.492;2023-03-13T08:16:44;4.40;;;2.70;;
64037;SDS011;54641;50.168;8.492;2023-03-13T08:19:15;3.00;;;2.10;;
64037;SDS011;54641;50.168;8.492;2023-03-13T08:21:45;4.40;;;2.00;;
64037;SDS011;54641;50.168;8.492;2023-03-13T08:24:15;4.70;;;2.90;;
64037;SDS011;54641;50.168;8.492;2023-03-13T08:26:46;3.30;;;2.20;;
64037;SDS011;54641;50.168;8.492;2023-03-13T08:29:16;5.10;;;2.60;;
64037;SDS011;54641;50.168;8.492;2023-03-13T08:31:47;4.40;;;2.20;;
64037;SDS011;54641;50.168;8.492;2023-03-13T08:34:19;3.30;;;2.10;;
64037;SDS011;54641;50.168;8.492;2023-03-13T08:36:49;3.80;;;2.70;;
64037;SDS011;54641;50.168;8.492;2023-03-13T08:39:20;5.90;;;2.80;;
64037;SDS011;54641;50.168;8.492;2023-03-13T08:41:50;4.00;;;2.10;;
64037;SDS011;54641;50.168;8.492;2023-03-13T08:44:20;5.40;;;1.90;;
64037;SDS011;54641;50.168;8.492;2023-03-13T08:46:50;4.60;;;2.60;;
64037;SDS011;54641;50.168;8.492;2023-03-13T08:49:21;5.60;;;2.90;;
64037;SDS011;54641;50.168;8.492;2023-03-13T08:51:51;3.90;;;2.30;;
64037;SDS011;54641;50.168;8.492;2023-03-13T08:54:23;4.00;;;1.90;;
64037;SDS011;54641;50.168;8.492;2023-03-13T08:56:53;6.80;;;2.40;;
64037;SDS011;54641;50.168;8.492;2023-03-13T08:59:24;4.50;;;3.00;;
64037;SDS011;54641;50.168;8.492;2023-03-13T09:01:54;5.90;;;3.10;;
64037;SDS011;54641;50.168;8.492;2023-03-13T09:04:24;4.60;;;2.50;;
64037;SDS011;54641;50.168;8.492;2023-03-13T09:06:55;4.50;;;2.70;;
64037;SDS011;54641;50.168;8.492;2023-03-13T09:09:25;6.80;;;3.20;;
64037;SDS011;54641;50.168;8.492;2023-03-13T09:11:56;4.10;;;2.80;;
64037;SDS011;54641;50.168;8.492;2023-03-13T09:14:26;4.80;;;2.80;;
64037;SDS011;54641;50.168;8.492;2023-03-13T09:17:01;4.80;;;2.80;;
64037;SDS011;54641;50.168;8.492;2023-03-13T09:19:32;3.80;;;2.40;;
64037;SDS011;54641;50.168;8.492;2023-03-13T09:22:02;4.70;;;3.20;;
64037;SDS011;54641;50.168;8.492;2023-03-13T09:24:32;5.00;;;3.30;;
64037;SDS011;54641;50.168;8.492;2023-03-13T09:27:03;3.30;;;2.30;;
64037;SDS011;54641;50.168;8.492;2023-03-13T09:29:34;2.80;;;2.00;;
64037;SDS011;54641;50.168;8.492;2023-03-13T09:32:06;4.80;;;1.90;;
64037;SDS011;54641;50.168;8.492;2023-03-13T09:34:39;4.20;;;2.70;;
64037;SDS011;54641;50.168;8.492;2023-03-13T09:37:09;5.10;;;2.90;;
64037;SDS011;54641;50.168;8.492;2023-03-13T09:39:40;4.30;;;2.40;;
64037;SDS011;54641;50.168;8.492;2023-03-13T09:42:12;5.20;;;2.40;;
64037;SDS011;54641;50.168;8.492;2023-03-13T09:44:45;4.90;;;2.50;;
64037;SDS011;54641;50.168;8.492;2023-03-13T09:47:19;4.90;;;3.20;;
64037;SDS011;54641;50.168;8.492;2023-03-13T09:52:22;7.60;;;4.20;;
64037;SDS011;54641;50.168;8.492;2023-03-13T09:54:56;4.50;;;3.10;;
64037;SDS011;54641;50.168;8.492;2023-03-13T09:57:31;5.90;;;2.60;;
64037;SDS011;54641;50.168;8.492;2023-03-13T10:00:05;6.10;;;2.90;;
64037;SDS011;54641;50.168;8.492;2023-03-13T10:02:40;5.90;;;3.90;;
64037;SDS011;54641;50.168;8.492;2023-03-13T10:05:14;4.50;;;2.70;;
64037;SDS011;54641;50.168;8.492;2023-03-13T10:07:48;4.20;;;2.90;;
64037;SDS011;54641;50.168;8.492;2023-03-13T10:10:20;5.90;;;3.60;;
64037;SDS011;54641;50.168;8.492;2023-03-13T10:12:56;6.10;;;4.00;;
64037;SDS011;54641;50.168;8.492;2023-03-13T10:15:33;4.90;;;3.00;;
64037;SDS011;54641;50.168;8.492;2023-03-13T10:18:13;6.90;;;3.60;;
64037;SDS011;54641;50.168;8.492;2023-03-13T10:20:48;5.10;;;3.00;;
64037;SDS011;54641;50.168;8.492;2023-03-13T10:23:20;4.70;;;3.50;;
64037;SDS011;54641;50.168;8.492;2023-03-13T10:25:53;7.90;;;3.90;;
64037;SDS011;54641;50.168;8.492;2023-03-13T10:28:24;6.40;;;3.70;;
64037;SDS011;54641;50.168;8.492;2023-03-13T10:30:59;4.60;;;3.60;;
64037;SDS011;54641;50.168;8.492;2023-03-13T10:33:33;7.20;;;3.90;;
64037;SDS011;54641;50.168;8.492;2023-03-13T10:36:05;6.10;;;4.20;;
64037;SDS011;54641;50.168;8.492;2023-03-13T10:38:48;5.90;;;4.50;;
64037;SDS011;54641;50.168;8.492;2023-03-13T10:41:21;6.20;;;4.40;;
64037;SDS011;54641;50.168;8.492;2023-03-13T10:43:55;5.30;;;4.10;;
64037;SDS011;54641;50.168;8.492;2023-03-13T10:46:29;7.50;;;5.10;;
64037;SDS011;54641;50.168;8.492;2023-03-13T10:49:01;8.20;;;6.70;;
64037;SDS011;54641;50.168;8.492;2023-03-13T10:51:35;8.20;;;4.80;;
64037;SDS011;54641;50.168;8.492;2023-03-13T10:54:13;10.50;;;5.70;;
64037;SDS011;54641;50.168;8.492;2023-03-13T10:56:48;5.80;;;3.80;;
64037;SDS011;54641;50.168;8.492;2023-03-13T10:59:20;8.20;;;4.50;;
64037;SDS011;54641;50.168;8.492;2023-03-13T11:01:55;7.70;;;4.60;;
64037;SDS011;54641;50.168;8.492;2023-03-13T11:04:38;5.90;;;4.20;;
64037;SDS011;54641;50.168;8.492;2023-03-13T11:07:13;9.90;;;5.00;;
64037;SDS011;54641;50.168;8.492;2023-03-13T11:09:46;5.30;;;4.00;;
64037;SDS011;54641;50.168;8.492;2023-03-13T11:12:26;6.60;;;4.80;;
64037;SDS011;54641;50.168;8.492;2023-03-13T11:15:02;5.90;;;4.80;;
64037;SDS011;54641;50.168;8.492;2023-03-13T11:17:43;7.00;;;4.20;;
64037;SDS011;54641;50.168;8.492;2023-03-13T11:20:23;5.20;;;4.30;;
64037;SDS011;54641;50.168;8.492;2023-03-13T11:23:03;5.40;;;3.60;;
64037;SDS011;54641;50.168;8.492;2023-03-13T11:25:40;6.30;;;4.90;;
64037;SDS011;54641;50.168;8.492;2023-03-13T11:28:28;7.00;;;4.40;;
64037;SDS011;54641;50.168;8.492;2023-03-13T11:31:09;5.50;;;3.60;;
64037;SDS011;54641;50.168;8.492;2023-03-13T11:33:45;7.20;;;4.00;;
64037;SDS011;54641;50.168;8.492;2023-03-13T11:36:21;5.50;;;4.10;;
64037;SDS011;54641;50.168;8.492;2023-03-13T11:38:57;8.20;;;4.60;;
64037;SDS011;54641;50.168;8.492;2023-03-13T11:44:23;6.40;;;4.50;;
64037;SDS011;54641;50.168;8.492;2023-03-13T11:47:02;6.10;;;4.60;;
64037;SDS011;54641;50.168;8.492;2023-03-13T11:49:45;5.60;;;4.00;;
64037;SDS011;54641;50.168;8.492;2023-03-13T11:52:24;6.70;;;4.10;;
64037;SDS011;54641;50.168;8.492;2023-03-13T11:55:06;7.20;;;4.70;;
64037;SDS011;54641;50.168;8.492;2023-03-13T11:58:04;7.60;;;4.20;;
64037;SDS011;54641;50.168;8.492;2023-03-13T12:00:43;7.00;;;3.70;;
64037;SDS011;54641;50.168;8.492;2023-03-13T12:03:16;7.00;;;4.00;;
64037;SDS011;54641;50.168;8.492;2023-03-13T12:05:51;7.40;;;4.50;;
64037;SDS011;54641;50.168;8.492;2023-03-13T12:08:24;8.20;;;5.00;;
64037;SDS011;54641;50.168;8.492;2023-03-13T12:11:00;7.10;;;3.90;;
64037;SDS011;54641;50.168;8.492;2023-03-13T12:13:37;7.50;;;4.00;;
64037;SDS011;54641;50.168;8.492;2023-03-13T12:16:10;6.20;;;3.40;;
64037;SDS011;54641;50.168;8.492;2023-03-13T12:18:43;5.90;;;3.80;;
64037;SDS011;54641;50.168;8.492;2023-03-13T12:21:16;8.30;;;4.30;;
64037;SDS011;54641;50.168;8.492;2023-03-13T12:23:51;4.60;;;3.10;;
64037;SDS011;54641;50.168;8.492;2023-03-13T12:26:29;5.30;;;3.20;;
64037;SDS011;54641;50.168;8.492;2023-03-13T12:29:11;8.40;;;4.00;;
64037;SDS011;54641;50.168;8.492;2023-03-13T12:31:46;5.10;;;3.40;;
64037;SDS011;54641;50.168;8.492;2023-03-13T12:34:19;6.70;;;4.00;;
64037;SDS011;54641;50.168;8.492;2023-03-13T12:36:53;6.90;;;3.40;;
64037;SDS011;54641;50.168;8.492;2023-03-13T12:39:29;6.20;;;3.70;;
64037;SDS011;54641;50.168;8.492;2023-03-13T12:44:50;6.70;;;3.30;;
64037;SDS011;54641;50.168;8.492;2023-03-13T12:47:22;5.60;;;3.50;;
64037;SDS011;54641;50.168;8.492;2023-03-13T12:53:08;6.00;;;3.70;;
64037;SDS011;54641;50.168;8.492;2023-03-13T12:56:00;5.90;;;3.90;;
64037;SDS011;54641;50.168;8.492;2023-03-13T12:58:39;5.80;;;3.90;;
64037;SDS011;54641;50.168;8.492;2023-03-13T13:01:15;6.60;;;4.00;;
64037;SDS011;54641;50.168;8.492;2023-03-13T13:03:54;6.60;;;3.90;;
64037;SDS011;54641;50.168;8.492;2023-03-13T13:06:26;6.90;;;3.80;;
64037;SDS011;54641;50.168;8.492;2023-03-13T13:09:12;7.00;;;3.70;;
64037;SDS011;54641;50.168;8.492;2023-03-13T13:11:46;7.50;;;4.50;;
64037;SDS011;54641;50.168;8.492;2023-03-13T13:17:30;6.80;;;3.40;;
64037;SDS011;54641;50.168;8.492;2023-03-13T13:32:31;3.80;;;2.60;;
64037;SDS011;54641;50.168;8.492;2023-03-13T13:35:04;5.80;;;3.60;;
64037;SDS011;54641;50.168;8.492;2023-03-13T13:37:49;5.10;;;2.70;;
64037;SDS011;54641;50.168;8.492;2023-03-13T13:40:21;4.20;;;2.90;;
64037;SDS011;54641;50.168;8.492;2023-03-13T13:42:54;4.10;;;2.40;;
64037;SDS011;54641;50.168;8.492;2023-03-13T13:45:31;4.40;;;2.60;;
64037;SDS011;54641;50.168;8.492;2023-03-13T13:54:01;4.60;;;2.80;;
64037;SDS011;54641;50.168;8.492;2023-03-13T13:56:38;4.90;;;2.80;;
64037;SDS011;54641;50.168;8.492;2023-03-13T14:02:18;4.90;;;2.70;;
64037;SDS011;54641;50.168;8.492;2023-03-13T14:04:54;3.40;;;2.40;;
64037;SDS011;54641;50.168;8.492;2023-03-13T14:07:31;5.70;;;3.00;;
64037;SDS011;54641;50.168;8.492;2023-03-13T14:10:20;3.90;;;2.40;;
64037;SDS011;54641;50.168;8.492;2023-03-13T14:12:58;4.10;;;2.40;;
64037;SDS011;54641;50.168;8.492;2023-03-13T14:15:29;4.00;;;2.70;;
64037;SDS011;54641;50.168;8.492;2023-03-13T14:18:08;5.30;;;2.80;;
64037;SDS011;54641;50.168;8.492;2023-03-13T14:20:40;5.20;;;2.80;;
64037;SDS011;54641;50.168;8.492;2023-03-13T14:23:31;4.80;;;2.70;;
64037;SDS011;54641;50.168;8.492;2023-03-13T14:26:13;6.90;;;2.50;;
64037;SDS011;54641;50.168;8.492;2023-03-13T14:28:46;3.20;;;2.20;;
64037;SDS011;54641;50.168;8.492;2023-03-13T14:31:21;7.40;;;2.90;;
64037;SDS011;54641;50.168;8.492;2023-03-13T14:33:53;5.10;;;2.40;;
64037;SDS011;54641;50.168;8.492;2023-03-13T14:36:24;4.70;;;2.80;;
64037;SDS011;54641;50.168;8.492;2023-03-13T14:38:55;4.70;;;2.50;;
64037;SDS011;54641;50.168;8.492;2023-03-13T14:41:29;6.60;;;2.70;;
64037;SDS011;54641;50.168;8.492;2023-03-13T14:44:06;3.70;;;2.50;;
64037;SDS011;54641;50.168;8.492;2023-03-13T14:46:44;3.70;;;2.40;;
64037;SDS011;54641;50.168;8.492;2023-03-13T14:49:16;5.50;;;2.70;;
64037;SDS011;54641;50.168;8.492;2023-03-13T14:51:48;6.20;;;2.90;;
64037;SDS011;54641;50.168;8.492;2023-03-13T14:54:26;4.60;;;2.90;;
64037;SDS011;54641;50.168;8.492;2023-03-13T14:57:02;7.10;;;2.80;;
64037;SDS011;54641;50.168;8.492;2023-03-13T14:59:34;6.50;;;3.40;;
64037;SDS011;54641;50.168;8.492;2023-03-13T15:02:12;11.10;;;3.60;;
64037;SDS011;54641;50.168;8.492;2023-03-13T15:04:48;7.10;;;2.80;;
64037;SDS011;54641;50.168;8.492;2023-03-13T15:07:19;2.40;;;1.50;;
64037;SDS011;54641;50.168;8.492;2023-03-13T15:09:49;3.90;;;1.50;;
64037;SDS011;54641;50.168;8.492;2023-03-13T15:12:20;2.20;;;1.00;;
64037;SDS011;54641;50.168;8.492;2023-03-13T15:14:51;2.90;;;1.00;;
64037;SDS011;54641;50.168;8.492;2023-03-13T15:17:22;2.70;;;0.80;;
64037;SDS011;54641;50.168;8.492;2023-03-13T15:19:53;2.20;;;1.00;;
64037;SDS011;54641;50.168;8.492;2023-03-13T15:22:26;2.30;;;1.00;;
64037;SDS011;54641;50.168;8.492;2023-03-13T15:24:57;2.00;;;0.70;;
64037;SDS011;54641;50.168;8.492;2023-03-13T15:27:34;2.20;;;0.90;;
64037;SDS011;54641;50.168;8.492;2023-03-13T15:30:05;1.40;;;0.60;;
64037;SDS011;54641;50.168;8.492;2023-03-13T15:32:38;1.20;;;0.70;;
64037;SDS011;54641;50.168;8.492;2023-03-13T15:35:16;2.90;;;0.90;;
64037;SDS011;54641;50.168;8.492;2023-03-13T15:37:51;2.40;;;0.90;;
64037;SDS011;54641;50.168;8.492;2023-03-13T15:40:22;2.00;;;0.90;;
64037;SDS011;54641;50.168;8.492;2023-03-13T15:42:57;1.60;;;0.70;;
64037;SDS011;54641;50.168;8.492;2023-03-13T15:45:28;1.90;;;1.10;;
64037;SDS011;54641;50.168;8.492;2023-03-13T15:47:58;3.40;;;1.00;;
64037;SDS011;54641;50.168;8.492;2023-03-13T15:50:28;2.90;;;1.00;;
64037;SDS011;54641;50.168;8.492;2023-03-13T15:52:59;2.10;;;1.00;;
64037;SDS011;54641;50.168;8.492;2023-03-13T15:55:29;1.80;;;0.90;;
64037;SDS011;54641;50.168;8.492;2023-03-13T15:57:59;1.60;;;0.90;;
64037;SDS011;54641;50.168;8.492;2023-03-13T16:00:30;2.80;;;1.00;;
64037;SDS011;54641;50.168;8.492;2023-03-13T16:03:00;2.50;;;1.00;;
64037;SDS011;54641;50.168;8.492;2023-03-13T16:05:30;4.30;;;1.10;;